Time;durP1;ratioP1;P1;durP2;ratioP2;P2;SDS_P1;SDS_P2;PMS_P1;PMS_P2;Temp;Humidity;BMP_temperature;BMP_pressure;BME280_temperature;BME280_humidity;BME280_pressure;Samples;Min_cycle;Max_cycle;Signal;HPM_P1;HPM_P2
2023/09/29 00:00:52;;;;;;;10.10;6.63;;;;;;;-145.63;44.88;39028.16;5023117;28;20351;-64
2023/09/29 00:03:19;;;;;;;12.48;6.75;;;;;;;-145.63;45.20;39002.72;5023122;28;20033;-64
2023/09/29 00:05:45;;;;;;;11.35;6.90;;;;;;;-145.63;44.84;38903.00;5012075;28;20102;-65
2023/09/29 00:08:16;;;;;;;9.13;5.80;;;;;;;-145.63;45.05;39067.28;5010265;28;20044;-68
2023/09/29 00:10:45;;;;;;;12.43;6.15;;;;;;;-145.63;44.91;39034.03;5019512;28;20299;-68
2023/09/29 00:13:12;;;;;;;10.23;6.30;;;;;;;-145.63;45.34;39030.13;5006520;28;20026;-67
2023/09/29 00:15:38;;;;;;;10.18;6.32;;;;;;;-145.63;44.90;39035.97;5026665;28;20041;-68
2023/09/29 00:18:07;;;;;;;14.93;6.90;;;;;;;-145.63;45.32;39063.34;5028923;28;20030;-66
2023/09/29 00:20:33;;;;;;;10.57;6.40;;;;;;;-145.63;45.22;39067.28;5013584;28;20076;-67
2023/09/29 00:23:01;;;;;;;8.10;6.32;;;;;;;-145.63;45.17;38992.97;5008076;28;20038;-66
2023/09/29 00:25:27;;;;;;;12.93;7.07;;;;;;;-145.63;44.94;39034.03;5022766;28;20064;-67
2023/09/29 00:27:55;;;;;;;9.13;6.35;;;;;;;-145.63;45.36;39053.59;5003314;28;20270;-66
2023/09/29 00:30:21;;;;;;;12.82;6.55;;;;;;;-145.63;45.20;39063.34;5018879;28;20080;-67
2023/09/29 00:32:51;;;;;;;8.63;6.43;;;;;;;-145.63;45.28;39043.81;5010442;28;20030;-67
2023/09/29 00:37:53;;;;;;;12.98;6.82;;;;;;;-145.63;45.82;39016.44;5022319;28;20073;-67
2023/09/29 00:40:19;;;;;;;9.02;6.32;;;;;;;-145.63;45.62;39061.41;5022737;28;20318;-67
2023/09/29 00:42:48;;;;;;;12.82;7.22;;;;;;;-145.63;45.76;39063.34;5022610;28;20037;-68
2023/09/29 00:45:25;;;;;;;14.20;8.05;;;;;;;-145.63;45.88;39059.44;5023081;28;20314;-67
2023/09/29 00:47:57;;;;;;;9.90;6.93;;;;;;;-145.63;45.85;39071.19;5014399;28;20049;-67
2023/09/29 00:50:26;;;;;;;8.63;6.75;;;;;;;-145.63;46.28;39073.13;5013885;28;20294;-66
2023/09/29 00:52:54;;;;;;;13.40;7.05;;;;;;;-145.63;46.24;39045.75;5010364;28;20025;-67
2023/09/29 00:55:24;;;;;;;11.15;7.43;;;;;;;-145.63;46.52;39079.00;5026388;28;20344;-68
2023/09/29 00:57:51;;;;;;;9.88;7.07;;;;;;;-145.63;46.26;39075.09;5024827;28;20065;-66
2023/09/29 01:02:51;;;;;;;13.30;7.15;;;;;;;-145.63;46.98;39075.09;5029176;28;20059;-67
2023/09/29 01:05:18;;;;;;;11.07;6.85;;;;;;;-145.63;46.94;39084.88;5028579;28;20032;-67
2023/09/29 01:07:46;;;;;;;9.25;6.78;;;;;;;-145.63;46.83;39090.75;5023503;28;20052;-67
2023/09/29 01:10:13;;;;;;;11.25;6.28;;;;;;;-145.63;46.57;38255.78;5006304;28;20400;-68
2023/09/29 01:12:40;;;;;;;11.38;7.38;;;;;;;-145.63;46.97;39061.41;5023965;28;20029;-68
2023/09/29 01:15:12;;;;;;;13.77;6.95;;;;;;;-145.63;47.41;39106.38;5018568;28;20026;-67
2023/09/29 01:17:40;;;;;;;11.85;6.90;;;;;;;-145.63;47.30;39084.88;5034788;28;20029;-67
2023/09/29 01:20:13;;;;;;;10.57;6.75;;;;;;;-145.63;47.17;39125.94;5038298;28;20025;-66
2023/09/29 01:22:48;;;;;;;11.38;7.50;;;;;;;-145.63;47.40;39071.19;5024102;28;20022;-67
2023/09/29 01:25:15;;;;;;;11.23;7.25;;;;;;;-145.63;47.56;39086.81;5006183;28;20041;-67
2023/09/29 01:27:41;;;;;;;10.63;7.05;;;;;;;-145.63;47.28;39092.69;5023816;28;20120;-67
2023/09/29 01:30:09;;;;;;;9.55;6.60;;;;;;;-145.63;47.19;39065.31;5012353;28;20038;-68
2023/09/29 01:32:35;;;;;;;10.50;6.90;;;;;;;-145.63;47.24;39069.22;5004889;28;20094;-69
2023/09/29 01:35:01;;;;;;;15.95;7.05;;;;;;;-145.63;47.20;39098.56;5010236;28;20021;-68
2023/09/29 01:37:30;;;;;;;14.75;8.15;;;;;;;-145.63;47.21;39106.38;5042715;28;20102;-67
2023/09/29 01:39:56;;;;;;;15.25;8.38;;;;;;;-145.63;46.98;39077.06;5025661;28;20025;-67
2023/09/29 01:42:22;;;;;;;13.82;7.22;;;;;;;-145.63;46.98;39051.63;5025446;28;20026;-66
2023/09/29 01:44:49;;;;;;;10.95;8.57;;;;;;;-145.63;46.92;39114.22;5023932;28;20034;-67
2023/09/29 01:47:14;;;;;;;14.57;8.20;;;;;;;-145.63;47.13;39082.91;5019907;28;20267;-67
2023/09/29 01:49:40;;;;;;;11.73;7.50;;;;;;;-145.63;47.05;39092.69;5020372;28;20022;-67
2023/09/29 01:52:06;;;;;;;9.50;7.63;;;;;;;-145.63;47.12;39106.38;5007246;28;20034;-67
2023/09/29 01:54:32;;;;;;;11.13;7.72;;;;;;;-145.63;47.34;39110.28;5021926;28;20029;-67
2023/09/29 01:57:01;;;;;;;12.68;7.90;;;;;;;-145.63;47.52;39114.22;5025842;28;20033;-67
2023/09/29 01:59:28;;;;;;;11.65;7.47;;;;;;;-145.63;47.39;39075.09;5017445;28;20251;-67
2023/09/29 02:01:54;;;;;;;11.85;7.50;;;;;;;-145.63;47.59;39122.03;5039218;28;20030;-65
2023/09/29 02:04:20;;;;;;;13.80;7.70;;;;;;;-145.63;47.47;39102.47;5025468;28;20345;-66
2023/09/29 02:06:45;;;;;;;16.65;7.70;;;;;;;-145.63;47.52;39106.38;5024794;28;20033;-66
2023/09/29 02:09:11;;;;;;;9.48;7.57;;;;;;;-145.63;47.64;39092.69;5011151;28;20027;-67
2023/09/29 02:11:41;;;;;;;12.30;7.82;;;;;;;-145.63;47.62;39141.59;5014042;28;20040;-67
2023/09/29 02:14:06;;;;;;;10.93;7.28;;;;;;;-145.63;47.83;39114.22;5019797;28;20026;-67
2023/09/29 02:16:51;;;;;;;13.48;8.13;;;;;;;-145.63;47.77;39092.69;5026218;28;20041;-67
2023/09/29 02:19:16;;;;;;;12.57;7.78;;;;;;;-145.63;48.04;39135.72;5036154;28;20071;-67
2023/09/29 02:21:43;;;;;;;12.88;8.98;;;;;;;-145.63;48.47;39143.53;5025158;28;20030;-67
2023/09/29 02:24:29;;;;;;;15.18;8.20;;;;;;;-145.63;48.39;39153.31;5007611;28;20033;-67
2023/09/29 02:26:55;;;;;;;15.80;12.77;;;;;;;-145.63;48.22;39151.38;5014832;28;20041;-69
2023/09/29 02:29:21;;;;;;;15.75;11.77;;;;;;;-145.63;48.37;39125.94;5017943;28;20226;-67
2023/09/29 02:31:46;;;;;;;20.05;15.05;;;;;;;-145.63;48.58;39125.94;5006520;28;20257;-67
2023/09/29 02:34:14;;;;;;;21.13;17.67;;;;;;;-145.63;48.51;39104.44;5024348;28;20081;-66
2023/09/29 02:36:40;;;;;;;33.80;30.00;;;;;;;-145.63;48.75;39116.16;5028099;28;20021;-67
2023/09/29 02:39:08;;;;;;;30.38;25.80;;;;;;;-145.63;48.57;39151.38;5031183;28;20028;-66
2023/09/29 02:41:34;;;;;;;36.35;32.40;;;;;;;-145.63;48.78;39131.81;5023880;28;20357;-66
2023/09/29 02:44:01;;;;;;;36.95;32.55;;;;;;;-145.63;48.73;39129.84;5023982;28;20038;-67
2023/09/29 02:46:27;;;;;;;35.78;32.17;;;;;;;-145.63;49.00;39143.53;5024223;28;20215;-68
2023/09/29 02:48:53;;;;;;;41.75;37.40;;;;;;;-145.63;49.24;39153.31;5004908;28;20030;-69
2023/09/29 02:51:19;;;;;;;35.70;31.83;;;;;;;-145.63;49.17;39151.38;5012715;28;20034;-68
2023/09/29 02:53:49;;;;;;;39.85;34.38;;;;;;;-145.63;49.39;39168.97;5013687;28;20064;-67
2023/09/29 02:56:17;;;;;;;41.08;36.22;;;;;;;-145.63;49.33;39155.28;5025464;28;20068;-65
2023/09/29 02:58:46;;;;;;;35.50;30.27;;;;;;;-145.63;49.19;39202.22;5022457;28;20032;-65
2023/09/29 03:01:16;;;;;;;40.13;34.25;;;;;;;-145.63;49.40;39131.81;5015192;28;20037;-66
2023/09/29 03:03:45;;;;;;;44.30;39.55;;;;;;;-145.63;49.48;39153.31;5023722;28;20034;-67
2023/09/29 03:06:16;;;;;;;43.95;39.03;;;;;;;-145.63;49.70;39247.19;5010779;28;20323;-68
2023/09/29 03:08:42;;;;;;;46.50;39.35;;;;;;;-145.63;49.98;39161.13;5003071;28;20076;-67
2023/09/29 03:11:09;;;;;;;41.38;37.00;;;;;;;-145.63;49.57;39180.69;5004076;28;20046;-67
2023/09/29 03:13:43;;;;;;;39.55;35.38;;;;;;;-145.63;49.92;39125.94;5003873;28;20036;-68
2023/09/29 03:16:08;;;;;;;36.80;31.63;;;;;;;-145.63;50.10;39188.53;5029898;28;20096;-68
2023/09/29 03:18:37;;;;;;;38.55;32.55;;;;;;;-145.63;49.77;39176.78;5026712;28;20033;-67
2023/09/29 03:21:12;;;;;;;38.95;34.63;;;;;;;-145.63;50.11;38932.34;5011433;28;20330;-67
2023/09/29 03:23:39;;;;;;;37.35;32.10;;;;;;;-145.63;50.49;39157.22;5012307;28;20028;-67
2023/09/29 03:26:05;;;;;;;36.85;32.78;;;;;;;-145.63;50.07;39170.91;5023274;28;20073;-66
2023/09/29 03:28:32;;;;;;;33.83;29.55;;;;;;;-145.63;50.78;39196.34;5023376;28;20030;-67
2023/09/29 03:31:00;;;;;;;34.13;29.15;;;;;;;-145.63;50.78;39184.59;5004157;28;20026;-67
2023/09/29 03:33:25;;;;;;;34.10;30.13;;;;;;;-145.63;50.59;39184.59;5002678;28;20073;-67
2023/09/29 03:35:55;;;;;;;33.65;27.30;;;;;;;-145.63;50.56;39163.09;5011579;28;20029;-67
2023/09/29 03:38:20;;;;;;;32.72;27.48;;;;;;;-145.63;50.95;39139.63;5035919;28;20037;-69
2023/09/29 03:40:50;;;;;;;30.80;24.20;;;;;;;-145.63;51.04;39200.25;5023122;28;20230;-67
2023/09/29 03:43:16;;;;;;;25.33;22.58;;;;;;;-145.63;50.89;39161.13;5022113;28;20149;-68
2023/09/29 03:45:42;;;;;;;29.20;23.63;;;;;;;-145.63;51.16;39229.59;5026941;28;20132;-67
2023/09/29 03:48:09;;;;;;;28.13;21.05;;;;;;;-145.63;51.21;39172.88;5030656;28;20101;-68
2023/09/29 03:50:35;;;;;;;25.70;20.80;;;;;;;-145.63;51.60;39215.91;5009195;28;20022;-67
2023/09/29 03:53:01;;;;;;;24.05;19.02;;;;;;;-145.63;51.06;39184.59;5006937;28;20101;-66
2023/09/29 03:55:27;;;;;;;23.63;18.77;;;;;;;-145.63;51.20;39182.66;5024056;28;20081;-66
2023/09/29 03:57:53;;;;;;;25.08;19.63;;;;;;;-145.63;50.85;39180.69;5024328;28;20345;-68
2023/09/29 04:00:19;;;;;;;26.58;20.67;;;;;;;-145.63;51.31;39208.06;5023712;28;20018;-67
2023/09/29 04:02:49;;;;;;;24.85;18.77;;;;;;;-145.63;51.33;39161.13;5010266;28;20026;-68
2023/09/29 04:05:15;;;;;;;21.58;16.52;;;;;;;-145.63;51.78;39190.47;5008536;28;20025;-69
2023/09/29 04:07:42;;;;;;;21.75;15.75;;;;;;;-145.63;51.37;39182.66;5022482;28;20017;-68
2023/09/29 04:10:12;;;;;;;24.42;16.80;;;;;;;-145.63;51.20;39210.03;5003517;28;20401;-67
2023/09/29 04:12:40;;;;;;;24.35;17.17;;;;;;;-145.63;51.57;39151.38;5019359;28;20041;-66
2023/09/29 04:15:07;;;;;;;22.92;17.02;;;;;;;-145.63;51.24;39167.00;5015267;28;20041;-68
2023/09/29 04:17:35;;;;;;;25.10;17.27;;;;;;;-145.63;51.62;39204.16;5020347;28;20057;-69
2023/09/29 04:20:02;;;;;;;25.92;16.73;;;;;;;-145.63;51.58;39210.03;5005675;28;20041;-67
2023/09/29 04:22:32;;;;;;;24.63;16.08;;;;;;;-145.63;51.25;39180.69;5007111;28;20104;-66
2023/09/29 04:24:58;;;;;;;23.45;14.60;;;;;;;-145.63;51.66;39163.09;5025953;28;20368;-66
2023/09/29 04:27:25;;;;;;;22.75;14.13;;;;;;;-145.63;51.79;39172.88;5015977;28;20339;-67
2023/09/29 04:29:51;;;;;;;21.10;13.50;;;;;;;-145.63;51.37;39167.00;5016592;28;20103;-66
2023/09/29 04:32:17;;;;;;;18.92;13.50;;;;;;;-145.63;52.00;39192.44;5021273;28;20026;-67
2023/09/29 04:34:44;;;;;;;19.27;13.05;;;;;;;-145.63;51.70;39182.66;5007063;28;20038;-66
2023/09/29 04:37:10;;;;;;;17.98;11.15;;;;;;;-145.63;51.67;39163.09;5040780;28;20389;-68
2023/09/29 04:39:35;;;;;;;18.15;11.88;;;;;;;-145.63;51.62;39182.66;5030192;28;20033;-68
2023/09/29 04:42:04;;;;;;;11.38;9.95;;;;;;;-145.63;51.25;39174.84;5015781;28;20041;-67
2023/09/29 04:44:30;;;;;;;13.95;9.95;;;;;;;-145.63;51.20;39174.84;5009080;28;20036;-67
2023/09/29 04:46:56;;;;;;;15.55;10.40;;;;;;;-145.63;51.79;39161.13;5015372;28;20025;-66
2023/09/29 04:49:22;;;;;;;14.23;10.32;;;;;;;-145.63;50.88;39161.13;5009998;28;20029;-67
2023/09/29 04:51:48;;;;;;;24.02;11.93;;;;;;;-145.63;51.31;39151.38;5008475;28;20207;-66
2023/09/29 04:54:13;;;;;;;19.52;10.93;;;;;;;-145.63;51.26;39094.66;5013904;28;20034;-66
2023/09/29 04:56:39;;;;;;;21.13;11.70;;;;;;;-145.63;51.25;39145.50;5018279;28;20033;-66
2023/09/29 04:59:05;;;;;;;19.05;11.00;;;;;;;-145.63;50.94;39151.38;5021895;28;20033;-68
2023/09/29 05:01:31;;;;;;;15.45;12.05;;;;;;;-145.63;50.86;39151.38;5033741;28;20032;-69
2023/09/29 05:03:57;;;;;;;16.75;12.57;;;;;;;-145.63;50.97;39143.53;5038841;28;20034;-66
2023/09/29 05:06:24;;;;;;;18.05;13.98;;;;;;;-145.63;50.28;39139.63;5025807;28;20100;-67
2023/09/29 05:08:49;;;;;;;15.70;13.48;;;;;;;-145.63;50.45;39125.94;5016476;28;20149;-67
2023/09/29 05:11:22;;;;;;;15.48;13.05;;;;;;;-145.63;50.13;39139.63;5010363;28;20333;-66
2023/09/29 05:13:49;;;;;;;20.33;12.48;;;;;;;-145.63;49.84;39116.16;5024647;28;20038;-67
2023/09/29 05:16:15;;;;;;;16.55;12.27;;;;;;;-145.63;49.72;39108.34;5020457;28;20029;-68
2023/09/29 05:18:43;;;;;;;19.25;14.90;;;;;;;-145.63;49.59;39082.91;5033631;28;20190;-68
2023/09/29 05:21:09;;;;;;;22.52;16.92;;;;;;;-145.63;49.33;39086.81;5033730;28;20029;-67
2023/09/29 05:23:37;;;;;;;23.45;17.20;;;;;;;-145.63;49.31;39110.28;5018395;28;20077;-66
2023/09/29 05:26:05;;;;;;;28.98;21.42;;;;;;;-145.63;49.10;39094.66;5008628;28;20046;-66
2023/09/29 05:28:32;;;;;;;26.10;19.35;;;;;;;-145.63;48.83;39090.75;5025385;28;20101;-68
2023/09/29 05:30:59;;;;;;;25.92;20.75;;;;;;;-145.63;49.11;39092.69;5024888;28;20072;-67
2023/09/29 05:33:25;;;;;;;27.67;20.02;;;;;;;-145.63;48.83;39071.19;5011091;28;20053;-67
2023/09/29 05:35:51;;;;;;;21.95;16.15;;;;;;;-145.63;48.64;39079.00;5014478;28;20048;-66
2023/09/29 05:38:17;;;;;;;22.63;14.80;;;;;;;-145.63;48.65;39053.59;5040819;28;20036;-66
2023/09/29 05:40:49;;;;;;;22.83;13.93;;;;;;;-145.63;48.62;39012.50;5031004;28;20036;-66
2023/09/29 05:43:16;;;;;;;16.45;11.13;;;;;;;-145.63;48.12;39053.59;5009669;28;20037;-67
2023/09/29 05:45:44;;;;;;;17.65;9.98;;;;;;;-145.63;48.41;39055.53;5024945;28;20168;-67
2023/09/29 05:48:10;;;;;;;17.50;9.88;;;;;;;-145.63;48.04;39067.28;5013077;28;20373;-66
2023/09/29 05:50:38;;;;;;;26.25;20.95;;;;;;;-145.63;47.85;39061.41;5012006;28;20038;-66
2023/09/29 05:53:04;;;;;;;20.15;10.30;;;;;;;-145.63;47.74;39028.16;5025178;28;20025;-65
2023/09/29 05:55:31;;;;;;;12.57;9.27;;;;;;;-145.63;47.50;38826.72;5026116;28;20025;-66
2023/09/29 05:57:57;;;;;;;19.95;9.77;;;;;;;-145.63;47.35;39026.19;5026785;28;20112;-67
2023/09/29 06:00:24;;;;;;;13.23;8.95;;;;;;;-145.63;47.42;39045.75;5023869;28;20028;-65
2023/09/29 06:02:50;;;;;;;13.07;8.25;;;;;;;-145.63;47.32;39010.56;5025220;28;20109;-67
2023/09/29 06:05:17;;;;;;;16.65;9.05;;;;;;;-145.63;47.18;38994.91;5034887;28;20030;-66
2023/09/29 06:07:43;;;;;;;12.88;8.27;;;;;;;-145.63;47.13;38985.13;5023428;28;20242;-65
2023/09/29 06:10:10;;;;;;;18.27;10.88;;;;;;;-145.63;46.98;38977.31;5005755;28;20085;-66
2023/09/29 06:12:37;;;;;;;17.30;9.23;;;;;;;-145.63;47.10;38928.44;5020139;28;20030;-66
2023/09/29 06:15:03;;;;;;;18.63;10.32;;;;;;;-145.63;46.93;38922.56;5020457;28;20037;-67
2023/09/29 06:17:31;;;;;;;17.20;10.40;;;;;;;-145.63;46.69;38928.44;5035920;28;20025;-66
2023/09/29 06:19:57;;;;;;;24.17;11.23;;;;;;;-145.63;46.25;38928.44;5013526;28;20057;-66
2023/09/29 06:22:23;;;;;;;14.68;9.10;;;;;;;-145.63;45.76;38863.88;5028807;28;20049;-66
2023/09/29 06:24:48;;;;;;;18.85;10.40;;;;;;;-145.63;45.53;38897.13;5027554;28;20342;-66
2023/09/29 06:27:14;;;;;;;18.20;8.95;;;;;;;-145.63;45.74;38893.22;5012853;28;20080;-67
2023/09/29 06:29:40;;;;;;;16.00;9.30;;;;;;;-145.63;45.64;38875.63;5011633;28;20218;-66
2023/09/29 06:32:08;;;;;;;14.20;9.23;;;;;;;-145.63;45.39;38836.50;5004621;28;20030;-67
2023/09/29 06:34:35;;;;;;;17.95;9.07;;;;;;;-145.63;45.51;38863.88;5003565;28;20061;-62
2023/09/29 06:37:01;;;;;;;14.77;9.10;;;;;;;-145.63;44.96;38850.19;5032094;28;20281;-63
2023/09/29 06:39:27;;;;;;;20.42;10.27;;;;;;;-145.63;44.42;38770.03;5030652;28;20026;-65
2023/09/29 06:41:53;;;;;;;19.20;10.07;;;;;;;-145.63;43.74;38797.41;5034229;28;20038;-64
2023/09/29 06:44:19;;;;;;;17.13;10.02;;;;;;;-145.63;43.60;38742.66;5019980;28;20038;-65
2023/09/29 06:46:45;;;;;;;15.25;9.70;;;;;;;-145.63;42.79;38709.41;5016103;28;20021;-64
2023/09/29 06:49:10;;;;;;;21.48;9.93;;;;;;;-145.63;42.37;38693.75;5024590;28;20033;-65
2023/09/29 06:51:36;;;;;;;23.20;12.00;;;;;;;-145.63;42.11;38660.53;5008512;28;20188;-66
2023/09/29 06:54:02;;;;;;;15.73;9.60;;;;;;;-145.63;41.80;38592.09;5013700;28;20030;-66
2023/09/29 06:56:29;;;;;;;13.35;9.18;;;;;;;-145.63;40.92;38621.41;5022449;28;20038;-64
2023/09/29 06:58:54;;;;;;;15.07;9.50;;;;;;;-145.63;41.35;38609.69;5004773;28;20030;-63
2023/09/29 07:01:21;;;;;;;23.05;10.30;;;;;;;-145.63;41.36;38594.03;5024113;28;20078;-65
2023/09/29 07:03:47;;;;;;;17.42;9.13;;;;;;;-145.63;41.01;38619.47;5023786;28;20036;-65
2023/09/29 07:06:16;;;;;;;17.15;9.35;;;;;;;-145.63;40.96;38640.97;5012759;28;20086;-65
2023/09/29 07:08:41;;;;;;;18.85;8.65;;;;;;;-145.63;41.48;38605.78;5010642;28;20034;-64
2023/09/29 07:11:07;;;;;;;16.13;9.13;;;;;;;-145.63;40.87;38590.13;5021445;28;20344;-65
2023/09/29 07:13:33;;;;;;;14.93;7.97;;;;;;;-145.63;41.23;38601.84;5003960;28;20054;-65
2023/09/29 07:15:59;;;;;;;14.05;8.75;;;;;;;-145.63;41.36;38639.00;5026067;28;20035;-67
2023/09/29 07:18:25;;;;;;;17.08;9.50;;;;;;;-145.63;41.06;38629.22;5030816;28;20046;-69
2023/09/29 07:20:52;;;;;;;17.80;10.77;;;;;;;-145.63;41.50;38656.59;5015396;28;20034;-68
2023/09/29 07:23:22;;;;;;;15.32;9.10;;;;;;;-145.63;41.30;38621.41;5012779;28;20049;-68
2023/09/29 07:25:48;;;;;;;16.05;9.90;;;;;;;-145.63;41.35;38640.97;5025541;28;20025;-67
2023/09/29 07:28:18;;;;;;;13.85;10.80;;;;;;;-145.63;41.26;38633.16;5024039;28;20049;-65
2023/09/29 07:30:45;;;;;;;16.80;11.38;;;;;;;-145.63;41.30;38640.97;5034556;28;20036;-66
2023/09/29 07:33:11;;;;;;;17.70;11.30;;;;;;;-145.63;41.53;38601.84;5032625;28;20037;-64
2023/09/29 07:35:37;;;;;;;18.73;10.82;;;;;;;-145.63;41.69;38640.97;5021627;28;20026;-64
2023/09/29 07:38:04;;;;;;;16.95;10.93;;;;;;;-145.63;41.75;38654.66;5041412;28;20325;-64
2023/09/29 07:40:32;;;;;;;16.65;10.70;;;;;;;-145.63;41.27;38625.31;5023176;28;20361;-64
2023/09/29 07:42:58;;;;;;;21.20;11.55;;;;;;;-145.63;41.27;38607.72;5006438;28;20034;-64
2023/09/29 07:45:24;;;;;;;19.33;10.70;;;;;;;-145.63;41.59;38625.31;5003249;28;20068;-65
2023/09/29 07:47:50;;;;;;;18.10;10.88;;;;;;;-145.63;41.27;38637.06;5010917;28;20034;-64
2023/09/29 07:50:17;;;;;;;19.30;11.57;;;;;;;-145.63;41.14;38605.78;5020386;28;20045;-64
2023/09/29 07:52:42;;;;;;;17.80;11.57;;;;;;;-145.63;41.18;38601.84;5003657;28;20026;-64
2023/09/29 07:55:09;;;;;;;15.77;10.27;;;;;;;-145.63;41.48;38586.22;5020583;28;20294;-63
2023/09/29 07:57:35;;;;;;;25.63;12.80;;;;;;;-145.63;41.19;38551.03;5027176;28;20318;-64
2023/09/29 08:00:04;;;;;;;22.33;12.55;;;;;;;-145.63;41.33;38570.56;5014776;28;20061;-64
2023/09/29 08:02:31;;;;;;;22.58;12.48;;;;;;;-145.63;41.42;38566.66;5023288;28;20036;-64
2023/09/29 08:04:57;;;;;;;20.80;12.38;;;;;;;-145.63;41.48;38549.06;5023116;28;20029;-65
2023/09/29 08:07:23;;;;;;;21.10;13.07;;;;;;;-145.63;41.07;38537.34;5019385;28;20285;-64
2023/09/29 08:09:50;;;;;;;21.10;12.05;;;;;;;-145.63;41.02;38494.31;5018718;28;20038;-65
2023/09/29 08:12:17;;;;;;;18.58;11.77;;;;;;;-145.63;41.01;38519.72;5027523;28;20052;-65
2023/09/29 08:14:43;;;;;;;20.25;11.93;;;;;;;-145.63;41.24;38506.03;5023115;28;20044;-64
2023/09/29 08:17:09;;;;;;;20.40;12.50;;;;;;;-145.63;41.50;38472.81;5035875;28;20025;-64
2023/09/29 08:19:35;;;;;;;22.55;12.60;;;;;;;-145.63;41.40;38517.78;5022740;28;20026;-63
2023/09/29 08:22:02;;;;;;;25.00;11.18;;;;;;;-145.63;41.22;38457.16;5007127;28;20356;-64
2023/09/29 08:24:30;;;;;;;15.45;10.50;;;;;;;-145.63;41.13;38449.34;5020524;28;20074;-64
2023/09/29 08:26:56;;;;;;;17.17;10.55;;;;;;;-145.63;41.17;38502.13;5021511;28;20045;-65
2023/09/29 08:29:22;;;;;;;15.95;9.75;;;;;;;-145.63;41.43;38435.66;5018222;28;20022;-66
2023/09/29 08:31:48;;;;;;;17.98;10.73;;;;;;;-145.63;41.36;38396.53;5013893;28;20096;-63
2023/09/29 08:34:13;;;;;;;24.65;12.13;;;;;;;-145.63;41.02;38414.16;5015374;28;20042;-65
2023/09/29 08:36:39;;;;;;;19.77;10.13;;;;;;;-145.63;40.65;38396.53;5030758;28;20070;-63
2023/09/29 08:39:05;;;;;;;35.58;10.57;;;;;;;-145.63;40.54;38320.28;5033291;28;20068;-64
2023/09/29 08:41:34;;;;;;;18.52;11.02;;;;;;;-145.63;40.07;38335.94;5022618;28;20022;-63
2023/09/29 08:44:03;;;;;;;17.52;10.38;;;;;;;-145.63;39.52;38300.75;5022004;28;20057;-63
2023/09/29 08:46:29;;;;;;;19.17;10.07;;;;;;;-145.63;39.11;38197.13;5002905;28;20025;-64
2023/09/29 08:48:56;;;;;;;22.40;10.13;;;;;;;-145.63;38.72;38101.31;5018811;28;20030;-64
2023/09/29 08:51:23;;;;;;;19.63;10.15;;;;;;;-145.63;37.93;38083.72;5011277;28;20214;-65
2023/09/29 08:53:52;;;;;;;18.08;9.80;;;;;;;-145.63;37.91;38111.09;5005097;28;20137;-65
2023/09/29 08:56:19;;;;;;;16.48;10.55;;;;;;;-145.63;37.38;38210.81;5025930;28;20281;-64
2023/09/29 08:58:45;;;;;;;23.17;10.50;;;;;;;-145.63;37.33;37976.19;5022317;28;20021;-64
2023/09/29 09:01:11;;;;;;;18.90;10.93;;;;;;;-145.63;37.32;37790.44;5019237;28;20026;-64
2023/09/29 09:03:37;;;;;;;19.67;11.40;;;;;;;-145.63;36.78;37972.28;5021572;28;20092;-64
2023/09/29 09:06:24;;;;;;;16.08;10.13;;;;;;;-145.63;36.39;37937.09;5022034;28;20040;-64
2023/09/29 09:08:52;;;;;;;18.35;10.52;;;;;;;-145.63;36.73;37982.03;5018776;28;20030;-64
2023/09/29 09:11:19;;;;;;;12.88;9.43;;;;;;;-145.63;36.49;37952.72;5008659;28;20025;-64
2023/09/29 09:13:59;;;;;;;20.27;9.60;;;;;;;-145.63;36.66;37909.72;5025691;28;20096;-63
2023/09/29 09:16:26;;;;;;;15.20;10.30;;;;;;;-145.63;35.85;37903.84;5022934;28;20063;-64
2023/09/29 09:18:53;;;;;;;17.02;8.77;;;;;;;-145.63;36.45;37886.25;5020863;28;20033;-64
2023/09/29 09:21:19;;;;;;;20.25;10.30;;;;;;;-145.63;36.15;37985.97;5025123;28;20093;-65
2023/09/29 09:23:45;;;;;;;15.43;9.60;;;;;;;-145.63;36.25;37933.16;5018740;28;20027;-64
2023/09/29 09:26:17;;;;;;;16.85;9.63;;;;;;;-145.63;36.30;37925.34;5016851;28;20040;-65
2023/09/29 09:28:43;;;;;;;16.90;9.15;;;;;;;-145.63;36.42;37939.03;5026731;28;20045;-65
2023/09/29 09:31:10;;;;;;;21.42;10.02;;;;;;;-145.63;36.79;37209.88;5021166;28;20026;-64
2023/09/29 09:33:36;;;;;;;15.73;10.20;;;;;;;-145.63;36.97;37999.66;5008917;28;20026;-65
2023/09/29 09:36:09;;;;;;;15.05;9.27;;;;;;;-145.63;36.76;38027.00;5012104;28;20092;-64
2023/09/29 09:38:35;;;;;;;15.18;9.52;;;;;;;-145.63;37.01;38070.03;5014434;28;20022;-65
2023/09/29 09:41:01;;;;;;;18.92;9.82;;;;;;;-145.63;36.88;38044.63;5026807;28;20017;-66
2023/09/29 09:43:29;;;;;;;19.17;10.20;;;;;;;-145.63;37.31;38105.22;5006006;28;20329;-66
2023/09/29 09:46:12;;;;;;;16.05;8.85;;;;;;;-145.63;38.07;38111.09;5015551;28;20026;-64
2023/09/29 09:48:50;;;;;;;20.23;9.70;;;;;;;-145.63;37.78;38181.47;5011160;28;20033;-64
2023/09/29 09:51:31;;;;;;;20.13;9.98;;;;;;;-145.63;37.88;38138.47;5015510;28;20029;-65
2023/09/29 09:54:03;;;;;;;18.73;9.57;;;;;;;-145.63;37.69;38118.91;5017671;28;20089;-65
2023/09/29 09:56:50;;;;;;;17.08;10.75;;;;;;;-145.63;37.59;38148.22;5019944;28;20049;-64
2023/09/29 09:59:18;;;;;;;13.93;9.52;;;;;;;-145.63;38.11;38085.66;5024909;28;20249;-64
2023/09/29 10:01:45;;;;;;;17.60;9.80;;;;;;;-145.63;38.01;38126.72;5023773;28;20018;-64
2023/09/29 10:04:13;;;;;;;20.77;10.25;;;;;;;-145.63;38.10;38140.41;5007482;28;20034;-65
2023/09/29 10:06:41;;;;;;;18.23;10.20;;;;;;;-145.63;37.43;38156.06;5018001;28;20022;-64
2023/09/29 10:09:11;;;;;;;20.50;9.70;;;;;;;-145.63;37.72;38163.88;5016022;28;20026;-65
2023/09/29 10:11:42;;;;;;;17.33;10.48;;;;;;;-145.63;38.22;38148.22;5009471;28;20051;-66
2023/09/29 10:14:08;;;;;;;22.30;10.32;;;;;;;-145.63;38.07;38163.88;5024203;28;20092;-65
2023/09/29 10:16:35;;;;;;;23.70;11.00;;;;;;;-145.63;37.63;38158.00;5024374;28;20022;-64
2023/09/29 10:19:06;;;;;;;14.77;10.38;;;;;;;-145.63;38.10;38146.28;5028042;28;20045;-65
2023/09/29 10:21:45;;;;;;;21.63;10.77;;;;;;;-145.63;37.68;38109.13;5012600;28;20085;-64
2023/09/29 10:24:31;;;;;;;18.98;10.43;;;;;;;-145.63;38.20;38167.78;5013264;28;20198;-64
2023/09/29 10:27:04;;;;;;;19.17;10.20;;;;;;;-145.63;37.77;38138.47;5029247;28;20088;-65
2023/09/29 10:29:35;;;;;;;22.38;10.68;;;;;;;-145.63;37.74;38120.88;5012638;28;20202;-64
2023/09/29 10:32:11;;;;;;;21.20;10.50;;;;;;;-145.63;37.53;38126.72;5004823;28;20038;-64
2023/09/29 10:34:38;;;;;;;15.68;10.52;;;;;;;-145.63;38.01;38165.84;5004573;28;20041;-64
2023/09/29 10:37:03;;;;;;;18.70;10.18;;;;;;;-145.63;37.83;38150.19;5021268;28;20065;-64
2023/09/29 10:39:30;;;;;;;19.08;9.93;;;;;;;-145.63;37.57;38142.38;5019631;28;20191;-64
2023/09/29 10:42:12;;;;;;;13.20;9.73;;;;;;;-145.63;37.58;38124.78;5017322;28;20033;-65
2023/09/29 10:44:44;;;;;;;17.15;10.30;;;;;;;-145.63;37.58;38132.59;5004398;28;20034;-64
2023/09/29 10:47:14;;;;;;;18.73;10.02;;;;;;;-145.63;37.71;38140.41;5004971;28;20041;-65
2023/09/29 10:49:46;;;;;;;19.58;10.60;;;;;;;-145.63;37.31;38202.97;5023916;28;20278;-64
2023/09/29 10:52:22;;;;;;;17.02;9.65;;;;;;;-145.63;37.33;38128.69;5019822;28;20275;-64
2023/09/29 10:54:55;;;;;;;16.65;10.52;;;;;;;-145.63;37.01;38150.19;5010058;28;20283;-63
2023/09/29 10:57:21;;;;;;;14.85;9.15;;;;;;;-145.63;37.13;38150.19;5005484;28;20026;-64
2023/09/29 10:59:48;;;;;;;16.20;8.75;;;;;;;-145.63;37.07;38105.22;5007052;28;20083;-63
2023/09/29 11:02:14;;;;;;;21.52;9.68;;;;;;;-145.63;36.97;38152.16;5031117;28;20036;-64
2023/09/29 11:04:39;;;;;;;14.43;8.30;;;;;;;-145.63;36.91;38116.94;5007992;28;20030;-63
2023/09/29 11:07:05;;;;;;;19.30;9.02;;;;;;;-145.63;36.83;38124.78;5020348;28;20025;-64
2023/09/29 11:09:32;;;;;;;17.88;9.05;;;;;;;-145.63;36.46;38118.91;5021737;28;20038;-64
2023/09/29 11:11:58;;;;;;;17.58;8.23;;;;;;;-145.63;36.13;38124.78;5006487;28;20138;-65